Time;durP1;ratioP1;P1;durP2;ratioP2;P2;SDS_P1;SDS_P2;PMS_P1;PMS_P2;Temp;Humidity;BMP_temperature;BMP_pressure;BME280_temperature;BME280_humidity;BME280_pressure;Samples;Min_cycle;Max_cycle;Signal;HPM_P1;HPM_P2
2021/10/06 00:02:22;;;;;;;10.13;3.85;;;;;;;12.54;69.88;98190.75;5071938;28;20044;-74
2021/10/06 00:04:47;;;;;;;9.30;4.80;;;;;;;12.56;70.29;98200.44;5067113;28;20029;-74
2021/10/06 00:07:13;;;;;;;10.68;4.70;;;;;;;12.53;70.53;98195.25;5060293;28;20024;-74
2021/10/06 00:09:38;;;;;;;9.65;4.30;;;;;;;12.42;71.18;98200.41;5065045;28;20032;-74
2021/10/06 00:12:04;;;;;;;8.02;4.60;;;;;;;12.29;71.40;98186.84;5051801;28;20103;-75
2021/10/06 00:14:30;;;;;;;12.10;4.22;;;;;;;12.37;71.04;98178.31;5065849;28;20460;-74
2021/10/06 00:16:55;;;;;;;10.48;4.28;;;;;;;12.57;70.01;98179.84;5043312;28;20431;-74
2021/10/06 00:19:21;;;;;;;10.27;4.75;;;;;;;12.63;69.92;98191.06;5057578;28;20162;-74
2021/10/06 00:21:47;;;;;;;14.50;3.67;;;;;;;12.50;70.44;98166.78;5055751;28;20041;-75
2021/10/06 00:24:12;;;;;;;7.90;4.15;;;;;;;12.54;70.38;98170.16;5062111;28;20036;-74
2021/10/06 00:26:38;;;;;;;9.13;3.85;;;;;;;12.52;70.76;98175.59;5069872;28;20028;-75
2021/10/06 00:29:05;;;;;;;8.30;3.92;;;;;;;12.47;70.58;98161.59;5067416;28;20027;-75
2021/10/06 00:31:30;;;;;;;6.00;4.13;;;;;;;12.47;71.00;98166.97;5058632;28;20051;-74
2021/10/06 00:33:56;;;;;;;6.53;3.30;;;;;;;12.42;70.85;98161.03;5062721;28;20535;-74
2021/10/06 00:36:22;;;;;;;17.38;3.60;;;;;;;12.54;70.79;98182.72;5069198;28;20116;-74
2021/10/06 00:38:48;;;;;;;7.40;4.22;;;;;;;12.58;70.51;98179.72;5061680;28;20029;-74
2021/10/06 00:41:13;;;;;;;9.60;4.03;;;;;;;12.66;70.25;98184.66;5054887;28;20722;-74
2021/10/06 00:43:39;;;;;;;5.68;3.58;;;;;;;12.64;69.77;98165.09;5053697;28;20393;-74
2021/10/06 00:46:04;;;;;;;23.40;4.05;;;;;;;12.62;69.58;98156.25;5067275;28;21651;-74
2021/10/06 00:48:30;;;;;;;7.13;3.83;;;;;;;12.71;69.65;98172.69;5042327;28;20071;-74
2021/10/06 00:50:56;;;;;;;7.18;3.90;;;;;;;12.62;69.96;98151.75;5062088;28;20488;-74
2021/10/06 00:53:27;;;;;;;7.38;3.58;;;;;;;12.69;70.20;98157.63;5068905;28;20514;-74
2021/10/06 00:55:54;;;;;;;10.65;3.65;;;;;;;12.64;70.61;98162.41;5062571;28;20503;-75
2021/10/06 00:58:19;;;;;;;7.20;3.63;;;;;;;12.49;70.67;98151.63;5061533;28;20048;-74
2021/10/06 01:00:45;;;;;;;5.38;3.70;;;;;;;12.47;70.55;98147.31;5045936;28;20028;-74
2021/10/06 01:03:11;;;;;;;8.30;3.97;;;;;;;12.53;70.89;98163.06;5059121;28;20029;-74
2021/10/06 01:05:37;;;;;;;8.45;4.20;;;;;;;12.55;70.70;98153.09;5058883;28;20029;-74
2021/10/06 01:08:04;;;;;;;5.05;3.85;;;;;;;12.59;70.99;98156.44;5068240;28;20059;-74
2021/10/06 01:10:31;;;;;;;15.52;4.35;;;;;;;12.53;71.17;98157.69;5044941;28;20488;-74
2021/10/06 01:12:57;;;;;;;7.30;4.25;;;;;;;12.45;71.56;98160.84;5039941;28;20035;-75
2021/10/06 01:15:23;;;;;;;7.07;4.28;;;;;;;12.46;71.99;98173.28;5066422;28;20024;-74
2021/10/06 01:17:49;;;;;;;7.40;4.53;;;;;;;12.40;72.28;98179.00;5064506;28;20031;-74
2021/10/06 01:20:16;;;;;;;14.38;5.05;;;;;;;12.31;72.64;98176.88;5053412;28;20032;-74
2021/10/06 01:22:42;;;;;;;9.43;3.95;;;;;;;12.25;73.51;98177.25;5069703;28;20028;-74
2021/10/06 01:25:12;;;;;;;15.98;4.35;;;;;;;12.33;73.60;98161.56;5044584;28;20029;-74
2021/10/06 01:27:38;;;;;;;9.23;3.97;;;;;;;12.28;73.43;98142.19;5052492;28;20024;-74
2021/10/06 01:30:08;;;;;;;8.25;4.20;;;;;;;12.37;73.61;98165.78;5069264;28;20017;-74
2021/10/06 01:35:20;;;;;;;7.43;3.75;;;;;;;12.41;73.12;98153.91;5058812;28;20086;-74
2021/10/06 01:37:46;;;;;;;7.07;3.97;;;;;;;12.45;73.17;98165.34;5049102;28;20032;-74
2021/10/06 01:40:15;;;;;;;10.60;4.82;;;;;;;12.42;73.34;98144.06;5064404;28;20028;-74
2021/10/06 01:42:41;;;;;;;9.07;3.63;;;;;;;12.29;73.21;98135.88;5062024;28;20041;-75
2021/10/06 01:45:14;;;;;;;11.35;4.53;;;;;;;12.41;73.06;98151.25;5059003;28;20035;-74
2021/10/06 01:47:39;;;;;;;5.88;3.90;;;;;;;12.25;73.71;98158.47;5056092;28;20028;-74
2021/10/06 01:50:05;;;;;;;8.30;4.45;;;;;;;12.34;73.29;98160.59;5067329;28;20025;-75
2021/10/06 01:52:31;;;;;;;8.52;4.05;;;;;;;12.25;73.78;98149.53;5045058;28;20033;-74
2021/10/06 01:54:56;;;;;;;11.75;4.70;;;;;;;12.29;73.75;98160.03;5059204;28;20025;-74
2021/10/06 01:57:22;;;;;;;14.48;4.72;;;;;;;12.02;74.34;98155.41;5053090;28;20020;-75
2021/10/06 01:59:48;;;;;;;8.30;5.10;;;;;;;11.94;74.58;98161.19;5059214;28;20464;-75
2021/10/06 02:02:15;;;;;;;8.82;5.43;;;;;;;11.65;75.36;98143.22;5060652;28;20036;-75
2021/10/06 02:04:43;;;;;;;10.30;5.00;;;;;;;11.80;75.75;98171.84;5058584;28;20036;-74
2021/10/06 02:07:08;;;;;;;9.45;5.05;;;;;;;11.64;75.46;98154.88;5063642;28;20036;-74
2021/10/06 02:09:34;;;;;;;10.00;4.97;;;;;;;11.59;75.58;98159.63;5061708;28;20032;-74
2021/10/06 02:11:59;;;;;;;15.75;5.43;;;;;;;11.59;76.25;98173.03;5057582;28;20039;-74
2021/10/06 02:14:25;;;;;;;9.13;5.13;;;;;;;11.51;76.75;98177.94;5043085;28;20029;-74
2021/10/06 02:16:50;;;;;;;13.45;5.38;;;;;;;11.41;76.71;98172.25;5072097;28;20542;-75
2021/10/06 02:19:16;;;;;;;9.23;5.82;;;;;;;11.34;77.68;98169.03;5061455;28;20027;-74
2021/10/06 02:21:41;;;;;;;11.45;5.70;;;;;;;11.25;78.46;98166.88;5063834;28;20149;-75
2021/10/06 02:24:07;;;;;;;12.20;5.47;;;;;;;11.23;78.70;98176.78;5061494;28;20021;-75
2021/10/06 02:26:33;;;;;;;11.18;4.50;;;;;;;11.21;79.18;98162.63;5057306;28;20029;-75
2021/10/06 02:28:59;;;;;;;13.05;5.30;;;;;;;11.24;78.85;98167.81;5056272;28;20036;-75
2021/10/06 02:31:24;;;;;;;9.23;5.60;;;;;;;11.08;78.89;98161.53;5067025;28;20380;-75
2021/10/06 02:33:50;;;;;;;11.20;5.40;;;;;;;11.01;78.94;98165.53;5056134;28;20039;-75
2021/10/06 02:36:15;;;;;;;6.35;5.05;;;;;;;10.78;80.45;98157.84;5061744;28;20039;-75
2021/10/06 02:38:41;;;;;;;18.05;5.80;;;;;;;10.68;82.18;98164.63;5068262;28;20034;-75
2021/10/06 02:41:07;;;;;;;13.70;5.93;;;;;;;10.57;83.93;98170.53;5053932;28;20021;-75
2021/10/06 02:43:32;;;;;;;18.73;5.82;;;;;;;10.41;86.10;98169.59;5066715;28;20085;-75
2021/10/06 02:45:58;;;;;;;12.82;6.03;;;;;;;10.23;87.66;98158.03;5060632;28;20029;-75
2021/10/06 02:48:24;;;;;;;12.95;6.60;;;;;;;10.24;88.09;98167.78;5064149;28;20026;-75
2021/10/06 02:50:50;;;;;;;12.45;6.70;;;;;;;10.23;89.05;98186.56;5057749;28;20095;-75
2021/10/06 02:53:16;;;;;;;12.98;6.28;;;;;;;10.14;88.80;98184.38;5059631;28;20048;-75
2021/10/06 02:55:42;;;;;;;11.00;6.95;;;;;;;10.00;89.38;98171.63;5062548;28;20055;-75
2021/10/06 02:58:07;;;;;;;13.02;6.28;;;;;;;10.05;89.33;98180.31;5059524;28;20455;-75
2021/10/06 03:00:33;;;;;;;12.70;6.40;;;;;;;9.93;90.07;98177.38;5062488;28;20036;-75
2021/10/06 03:02:58;;;;;;;29.08;10.75;;;;;;;9.79;91.36;98160.22;5062492;28;20107;-76
2021/10/06 03:05:24;;;;;;;20.35;9.07;;;;;;;9.80;91.35;98156.63;5065016;28;20108;-75
2021/10/06 03:07:50;;;;;;;26.48;8.50;;;;;;;9.83;91.89;98171.63;5063328;28;20464;-75
2021/10/06 03:10:15;;;;;;;16.05;8.05;;;;;;;9.79;92.35;98173.56;5058852;28;20527;-75
2021/10/06 03:12:41;;;;;;;11.65;6.50;;;;;;;9.80;91.20;98169.09;5064857;28;20028;-74
2021/10/06 03:15:08;;;;;;;18.33;8.48;;;;;;;9.77;92.01;98177.25;5066485;28;20046;-75
2021/10/06 03:17:34;;;;;;;15.77;7.80;;;;;;;9.66;92.57;98158.19;5060242;28;20059;-74
2021/10/06 03:20:00;;;;;;;14.60;6.32;;;;;;;9.75;92.28;98173.81;5041031;28;20117;-74
2021/10/06 03:22:25;;;;;;;11.10;6.63;;;;;;;9.63;92.08;98163.69;5065412;28;20040;-75
2021/10/06 03:24:51;;;;;;;10.93;6.85;;;;;;;9.67;92.13;98166.16;5059898;28;20029;-75
2021/10/06 03:27:17;;;;;;;16.50;7.32;;;;;;;9.76;91.51;98172.84;5041368;28;20025;-75
2021/10/06 03:29:43;;;;;;;17.77;8.38;;;;;;;9.58;92.77;98165.72;5062011;28;20120;-74
2021/10/06 03:32:09;;;;;;;18.88;10.65;;;;;;;9.54;92.91;98159.66;5057529;28;20050;-75
2021/10/06 03:34:35;;;;;;;15.30;7.95;;;;;;;9.31;93.59;98151.91;5041269;28;20032;-75
2021/10/06 03:37:00;;;;;;;18.35;7.38;;;;;;;9.31;93.95;98167.03;5063717;28;20033;-75
2021/10/06 03:39:26;;;;;;;13.38;7.60;;;;;;;9.19;94.24;98163.16;5067563;28;20048;-76
2021/10/06 03:41:51;;;;;;;23.85;9.02;;;;;;;8.95;94.75;98143.78;5060011;28;20068;-75
2021/10/06 03:44:17;;;;;;;13.30;7.95;;;;;;;8.91;96.21;98160.88;5066333;28;20514;-75
2021/10/06 03:46:42;;;;;;;18.90;9.35;;;;;;;8.78;97.06;98143.69;5049629;28;20461;-75
2021/10/06 03:49:08;;;;;;;16.08;9.07;;;;;;;8.56;97.94;98129.59;5068887;28;20477;-75
2021/10/06 03:51:34;;;;;;;17.58;9.98;;;;;;;8.56;99.30;98142.91;5061553;28;20070;-75
2021/10/06 03:53:59;;;;;;;18.65;9.25;;;;;;;8.46;99.31;98130.94;5059407;28;20020;-75
2021/10/06 03:56:25;;;;;;;21.48;9.35;;;;;;;8.46;99.86;98149.63;5067836;28;20102;-76
2021/10/06 03:58:50;;;;;;;18.52;10.30;;;;;;;8.29;100.00;98129.00;5073744;28;20063;-76
2021/10/06 04:01:16;;;;;;;16.38;10.43;;;;;;;8.33;100.00;98148.41;5072374;28;20067;-75
2021/10/06 04:03:41;;;;;;;25.67;11.23;;;;;;;8.29;100.00;98161.00;5071201;28;20549;-76
2021/10/06 04:06:07;;;;;;;22.13;10.75;;;;;;;8.26;100.00;98152.22;5060589;28;20021;-75
2021/10/06 04:08:33;;;;;;;22.00;10.10;;;;;;;8.06;100.00;98123.75;5060427;28;20115;-75
2021/10/06 04:10:59;;;;;;;17.98;10.07;;;;;;;8.17;100.00;98149.03;5066334;28;20523;-77
2021/10/06 04:13:24;;;;;;;19.67;10.48;;;;;;;8.07;100.00;98136.16;5052486;28;20025;-74
2021/10/06 04:15:50;;;;;;;21.35;11.18;;;;;;;8.02;100.00;98125.72;5064535;28;20048;-74
2021/10/06 04:18:15;;;;;;;27.95;10.63;;;;;;;7.99;100.00;98135.63;5061367;28;20032;-73
2021/10/06 04:20:41;;;;;;;19.95;11.07;;;;;;;7.98;100.00;98141.88;5062792;28;20036;-74
2021/10/06 04:23:06;;;;;;;20.92;9.43;;;;;;;7.83;100.00;98135.41;5058989;28;20017;-73
2021/10/06 04:25:32;;;;;;;19.73;9.75;;;;;;;7.83;100.00;98138.06;5063377;28;20029;-74
2021/10/06 04:27:57;;;;;;;19.73;9.82;;;;;;;7.63;100.00;98120.22;5049107;28;20052;-75
2021/10/06 04:30:23;;;;;;;13.52;9.02;;;;;;;7.67;100.00;98118.31;5062231;28;20021;-75
2021/10/06 04:32:49;;;;;;;22.13;10.95;;;;;;;7.86;100.00;98145.06;5063475;28;20028;-75
2021/10/06 04:35:14;;;;;;;19.45;10.73;;;;;;;7.92;100.00;98135.00;5058161;28;20021;-74
2021/10/06 04:37:40;;;;;;;16.33;9.40;;;;;;;7.98;100.00;98145.41;5066855;28;20032;-74
2021/10/06 04:40:07;;;;;;;16.38;9.68;;;;;;;7.91;100.00;98127.94;5064248;28;20110;-74
2021/10/06 04:42:33;;;;;;;18.52;9.98;;;;;;;7.97;100.00;98122.34;5059614;28;20621;-74
2021/10/06 04:44:59;;;;;;;17.00;10.20;;;;;;;8.15;100.00;98140.22;5043727;28;20029;-74
2021/10/06 04:47:24;;;;;;;22.63;11.48;;;;;;;8.25;100.00;98134.50;5061599;28;20033;-73
2021/10/06 04:49:50;;;;;;;33.65;15.65;;;;;;;8.29;100.00;98125.47;5060526;28;20028;-74
2021/10/06 04:52:15;;;;;;;36.00;16.05;;;;;;;8.39;100.00;98138.34;5047828;28;20110;-76
2021/10/06 04:54:41;;;;;;;34.08;13.68;;;;;;;8.34;100.00;98119.00;5063276;28;20025;-75
2021/10/06 04:57:06;;;;;;;26.40;11.77;;;;;;;8.38;100.00;98125.06;5065326;28;20561;-76
2021/10/06 04:59:32;;;;;;;26.40;11.95;;;;;;;8.51;100.00;98142.28;5044657;28;20449;-77
2021/10/06 05:01:59;;;;;;;30.23;13.35;;;;;;;8.52;100.00;98133.34;5059814;28;20028;-77
2021/10/06 05:04:26;;;;;;;22.52;12.30;;;;;;;9.29;97.10;98129.72;5063237;28;20115;-81
2021/10/06 05:06:51;;;;;;;27.35;10.77;;;;;;;10.53;87.84;98142.22;5048622;28;20039;-73
2021/10/06 05:09:18;;;;;;;30.83;13.45;;;;;;;11.29;81.20;98143.44;5048715;28;20028;-74
2021/10/06 05:11:44;;;;;;;22.40;11.55;;;;;;;11.96;76.46;98159.31;5061018;28;20025;-75
2021/10/06 05:14:09;;;;;;;31.65;14.32;;;;;;;12.63;72.91;98156.19;5067803;28;20048;-75
2021/10/06 05:16:35;;;;;;;30.75;15.57;;;;;;;13.38;68.54;98153.28;5060491;28;20452;-73
2021/10/06 05:19:00;;;;;;;41.55;13.27;;;;;;;14.07;65.53;98157.75;5068843;28;20021;-73
2021/10/06 05:21:26;;;;;;;31.95;12.38;;;;;;;14.95;61.30;98162.53;5051215;28;20404;-73
2021/10/06 05:23:51;;;;;;;34.50;11.90;;;;;;;15.54;58.31;98156.47;5048910;28;20105;-74
2021/10/06 05:26:17;;;;;;;30.67;12.00;;;;;;;15.79;57.22;98170.84;5070142;28;20134;-74
2021/10/06 05:28:43;;;;;;;27.05;12.38;;;;;;;16.27;55.95;98159.16;5069973;28;20024;-74
2021/10/06 05:31:08;;;;;;;36.95;12.13;;;;;;;17.06;52.92;98163.88;5069737;28;20089;-74
2021/10/06 05:33:34;;;;;;;25.10;12.32;;;;;;;17.47;51.37;98147.94;5070089;28;20103;-74
2021/10/06 05:36:02;;;;;;;33.95;12.20;;;;;;;17.84;49.92;98135.03;5060540;28;20040;-76
2021/10/06 05:38:28;;;;;;;35.00;12.23;;;;;;;18.00;49.58;98154.44;5034368;28;20033;-75
2021/10/06 05:40:54;;;;;;;38.70;10.30;;;;;;;18.44;47.86;98150.75;5057727;28;20024;-75
2021/10/06 05:43:20;;;;;;;40.47;13.98;;;;;;;18.74;47.36;98158.16;5070104;28;20064;-74
2021/10/06 05:45:45;;;;;;;20.80;8.40;;;;;;;18.83;46.96;98139.25;5056883;28;20120;-73
2021/10/06 05:48:12;;;;;;;37.28;12.23;;;;;;;19.16;46.13;98145.47;5050028;28;20500;-74
2021/10/06 05:50:37;;;;;;;22.58;10.23;;;;;;;19.29;46.18;98148.81;5050457;28;20025;-74
2021/10/06 05:53:04;;;;;;;34.47;10.00;;;;;;;19.63;45.35;98155.75;5033238;28;20145;-73
2021/10/06 05:55:29;;;;;;;30.42;10.75;;;;;;;20.22;44.40;98144.06;5042467;28;20451;-73
2021/10/06 05:57:55;;;;;;;21.00;7.40;;;;;;;20.30;43.77;98117.91;5050251;28;20036;-73
2021/10/06 06:00:21;;;;;;;21.55;9.48;;;;;;;20.58;43.49;98132.53;5049531;28;20029;-73
2021/10/06 06:02:47;;;;;;;21.13;8.48;;;;;;;20.91;42.67;98134.84;5050329;28;20037;-73
2021/10/06 06:05:13;;;;;;;17.15;10.00;;;;;;;22.24;40.16;98126.31;5032031;28;20459;-74
2021/10/06 06:07:39;;;;;;;20.02;8.95;;;;;;;22.70;38.78;98108.09;5048870;28;20416;-74
2021/10/06 06:10:05;;;;;;;11.80;6.55;;;;;;;23.05;37.78;98122.53;5050306;28;20029;-74
2021/10/06 06:12:31;;;;;;;21.35;7.25;;;;;;;22.98;38.47;98118.72;5049083;28;20025;-82
2021/10/06 06:14:56;;;;;;;21.98;5.50;;;;;;;23.44;37.04;98100.31;5048222;28;20112;-79
2021/10/06 06:17:22;;;;;;;14.02;6.85;;;;;;;24.38;35.51;98073.72;5034202;28;20020;-81
2021/10/06 06:19:47;;;;;;;15.05;6.35;;;;;;;24.30;35.01;98090.13;5050376;28;20595;-79
2021/10/06 06:22:13;;;;;;;15.10;6.88;;;;;;;24.64;35.24;98107.28;5065537;28;20032;-79
2021/10/06 06:24:38;;;;;;;17.30;6.45;;;;;;;24.93;34.71;98102.19;5063250;28;20057;-79
2021/10/06 06:27:05;;;;;;;12.82;6.35;;;;;;;26.00;33.28;98108.13;5065733;28;20036;-79
2021/10/06 06:29:30;;;;;;;16.73;6.32;;;;;;;26.01;33.01;98076.94;5067930;28;20051;-79
2021/10/06 06:31:56;;;;;;;12.18;5.95;;;;;;;26.67;31.74;98105.75;5056409;28;20439;-80
2021/10/06 06:34:23;;;;;;;17.15;6.82;;;;;;;27.15;31.37;98108.13;5066564;28;20081;-74
2021/10/06 06:36:49;;;;;;;20.17;7.68;;;;;;;26.85;31.74;98092.59;5049590;28;20105;-74
2021/10/06 06:39:14;;;;;;;22.88;6.70;;;;;;;27.17;31.06;98108.78;5067140;28;20024;-74
2021/10/06 06:41:40;;;;;;;14.10;6.93;;;;;;;27.59;30.12;98105.50;5060580;28;20072;-74
2021/10/06 06:44:06;;;;;;;17.73;6.40;;;;;;;28.09;29.48;98104.75;5060684;28;20041;-74
2021/10/06 06:46:31;;;;;;;16.02;5.60;;;;;;;27.29;30.45;98099.06;5058418;28;20499;-74
2021/10/06 06:48:57;;;;;;;13.05;6.05;;;;;;;27.50;29.76;98098.38;5035134;28;20044;-73
2021/10/06 06:51:23;;;;;;;13.32;6.10;;;;;;;27.77;29.47;98102.38;5046251;28;20029;-73
2021/10/06 06:53:49;;;;;;;18.25;6.22;;;;;;;27.66;29.59;98100.94;5046134;28;20083;-73
2021/10/06 06:56:15;;;;;;;17.73;4.97;;;;;;;27.86;29.34;98103.97;5030439;28;20450;-73
2021/10/06 06:58:40;;;;;;;13.40;5.43;;;;;;;27.90;29.42;98099.81;5055197;28;20389;-73
2021/10/06 07:01:06;;;;;;;10.10;4.60;;;;;;;28.06;29.46;98099.63;5046852;28;20610;-72
2021/10/06 07:03:32;;;;;;;7.75;4.82;;;;;;;26.20;31.45;98093.00;5047482;28;20120;-73
2021/10/06 07:05:57;;;;;;;14.55;6.30;;;;;;;27.18;30.83;98096.78;5047873;28;20041;-72
2021/10/06 07:08:23;;;;;;;12.30;4.35;;;;;;;28.06;29.24;98096.88;5050170;28;20037;-72
2021/10/06 07:10:49;;;;;;;10.65;4.53;;;;;;;28.20;28.72;98100.66;5065890;28;20416;-72
2021/10/06 07:13:14;;;;;;;6.05;4.35;;;;;;;28.82;27.47;98078.97;5050728;28;20028;-72
2021/10/06 07:15:40;;;;;;;12.38;4.95;;;;;;;28.52;28.25;98090.03;5054874;28;20051;-72
2021/10/06 07:18:06;;;;;;;9.80;3.72;;;;;;;29.32;26.71;98087.06;5055368;28;20033;-73
2021/10/06 07:20:31;;;;;;;11.85;4.60;;;;;;;28.42;27.71;98095.03;5050440;28;20045;-73
2021/10/06 07:22:57;;;;;;;6.38;4.20;;;;;;;28.48;27.34;98082.38;5055624;28;20032;-72
2021/10/06 07:25:22;;;;;;;12.30;4.30;;;;;;;28.49;27.71;98100.59;5068791;28;20519;-72
2021/10/06 07:27:48;;;;;;;17.20;4.97;;;;;;;28.71;27.17;98094.09;5070105;28;20114;-72
2021/10/06 07:30:13;;;;;;;11.38;4.90;;;;;;;27.78;28.50;98093.09;5086412;28;20084;-72
2021/10/06 07:32:39;;;;;;;12.15;4.20;;;;;;;28.47;27.95;98099.94;5068153;28;20074;-72
2021/10/06 07:35:05;;;;;;;12.63;6.15;;;;;;;28.74;27.32;98101.97;5050822;28;20021;-72
2021/10/06 07:37:31;;;;;;;22.88;8.07;;;;;;;29.15;26.72;98099.41;5049671;28;20032;-72
2021/10/06 07:39:56;;;;;;;15.23;8.63;;;;;;;29.34;26.60;98090.50;5050977;28;20025;-73
2021/10/06 07:42:22;;;;;;;27.20;13.88;;;;;;;29.73;26.21;98094.56;5056483;28;20056;-73
2021/10/06 07:44:48;;;;;;;22.35;11.52;;;;;;;29.86;26.16;98091.94;5051052;28;20465;-73
2021/10/06 07:47:13;;;;;;;17.85;8.68;;;;;;;30.47;25.81;98098.41;5049658;28;20071;-73
2021/10/06 07:49:40;;;;;;;15.02;6.88;;;;;;;30.55;25.48;98090.78;5050517;28;20085;-74
2021/10/06 07:52:05;;;;;;;8.15;5.25;;;;;;;30.43;25.33;98084.16;5053648;28;20492;-74
2021/10/06 07:54:31;;;;;;;10.80;5.47;;;;;;;29.05;26.98;98085.09;5068924;28;20099;-73
2021/10/06 07:56:56;;;;;;;10.00;5.47;;;;;;;28.50;27.93;98085.78;5066894;28;20108;-74
2021/10/06 07:59:22;;;;;;;10.10;5.95;;;;;;;28.20;28.61;98109.78;5070565;28;20032;-73
2021/10/06 08:01:48;;;;;;;10.68;5.28;;;;;;;28.69;27.55;98089.84;5051898;28;20399;-73
2021/10/06 08:04:13;;;;;;;9.80;5.85;;;;;;;28.98;27.54;98090.53;5050828;28;20037;-73
2021/10/06 08:06:39;;;;;;;11.13;5.63;;;;;;;28.96;27.26;98091.78;5059810;28;20032;-74
2021/10/06 08:09:08;;;;;;;8.82;5.63;;;;;;;29.76;26.70;98094.16;5056792;28;20024;-74
2021/10/06 08:11:34;;;;;;;9.65;5.20;;;;;;;29.57;26.69;98087.47;5070323;28;20032;-74
2021/10/06 08:14:00;;;;;;;12.20;5.90;;;;;;;28.57;27.97;98091.38;5068942;28;20028;-74
2021/10/06 08:16:25;;;;;;;8.75;5.47;;;;;;;27.77;28.67;98111.47;5069261;28;20410;-73
2021/10/06 08:18:51;;;;;;;10.38;6.82;;;;;;;27.83;29.09;98099.72;5051368;28;20118;-73
2021/10/06 08:21:17;;;;;;;11.25;6.20;;;;;;;28.01;28.57;98115.84;5070186;28;20032;-74
2021/10/06 08:23:42;;;;;;;10.60;5.90;;;;;;;29.25;27.50;98091.69;5054452;28;20044;-74
2021/10/06 08:26:08;;;;;;;10.05;5.28;;;;;;;29.50;26.79;98109.47;5068770;28;20024;-72
2021/10/06 08:28:34;;;;;;;12.00;6.25;;;;;;;29.19;26.97;98110.88;5053401;28;20079;-72
2021/10/06 08:31:00;;;;;;;10.13;5.32;;;;;;;27.88;28.14;98108.25;5057061;28;20484;-73
2021/10/06 08:33:25;;;;;;;12.05;6.05;;;;;;;27.63;28.68;98108.69;5049556;28;20033;-73
2021/10/06 08:35:51;;;;;;;16.42;5.85;;;;;;;28.23;28.60;98101.13;5041043;28;20138;-74
2021/10/06 08:38:17;;;;;;;13.73;6.55;;;;;;;29.20;27.20;98104.31;5051131;28;20125;-72
2021/10/06 08:40:48;;;;;;;10.73;6.50;;;;;;;30.10;25.87;98094.19;5062485;28;20025;-74
2021/10/06 08:43:14;;;;;;;8.75;5.80;;;;;;;29.55;26.77;98095.09;5043600;28;20040;-72
2021/10/06 08:45:39;;;;;;;12.13;7.35;;;;;;;29.69;26.52;98104.28;5051069;28;20039;-73
2021/10/06 08:48:07;;;;;;;15.40;9.30;;;;;;;29.17;27.30;98094.53;5054796;28;20031;-74
2021/10/06 08:50:33;;;;;;;7.30;6.05;;;;;;;28.97;27.03;98082.50;5067801;28;20036;-74
2021/10/06 08:52:58;;;;;;;118.22;57.72;;;;;;;29.09;27.69;98107.59;5069552;28;20036;-73
2021/10/06 08:55:30;;;;;;;35.63;16.20;;;;;;;29.11;27.47;98106.34;5049374;28;20174;-73
2021/10/06 08:58:04;;;;;;;66.97;32.27;;;;;;;28.37;28.25;98103.00;5047849;28;20542;-73
2021/10/06 09:00:30;;;;;;;34.35;18.33;;;;;;;28.52;28.51;98109.31;5059410;28;20282;-73
2021/10/06 09:03:06;;;;;;;12.35;7.72;;;;;;;28.04;28.59;98112.69;5067791;28;20035;-73
2021/10/06 09:05:32;;;;;;;14.73;6.45;;;;;;;27.82;28.92;98113.66;5067618;28;20070;-73
2021/10/06 09:08:01;;;;;;;12.52;6.47;;;;;;;28.40;28.40;98104.50;5068011;28;20079;-74
2021/10/06 09:10:29;;;;;;;11.38;6.65;;;;;;;27.76;28.79;98114.41;5066525;28;20040;-73
2021/10/06 09:13:08;;;;;;;8.75;5.90;;;;;;;26.87;29.96;98107.00;5067931;28;20024;-73
2021/10/06 09:15:44;;;;;;;14.77;6.65;;;;;;;27.20;29.50;98102.06;5068071;28;20099;-73
2021/10/06 09:18:12;;;;;;;13.25;7.93;;;;;;;27.13;30.00;98104.72;5067134;28;20098;-73
2021/10/06 09:20:38;;;;;;;15.25;8.35;;;;;;;27.02;30.33;98116.13;5057834;28;20032;-72
2021/10/06 09:23:07;;;;;;;14.55;6.60;;;;;;;27.50;30.24;98114.88;5059733;28;20476;-74
2021/10/06 09:26:04;;;;;;;9.30;5.95;;;;;;;28.04;28.57;98107.19;5047321;28;20083;-73
2021/10/06 09:28:29;;;;;;;19.95;9.73;;;;;;;27.74;29.40;98113.75;5047381;28;20150;-73
2021/10/06 09:30:59;;;;;;;11.30;6.53;;;;;;;28.31;28.47;98103.75;5054141;28;20460;-73
2021/10/06 09:33:43;;;;;;;8.65;6.90;;;;;;;28.21;28.29;98094.94;5059117;28;20461;-73
2021/10/06 09:36:12;;;;;;;17.90;7.32;;;;;;;27.73;29.03;98098.28;5052058;28;20027;-73
2021/10/06 09:38:42;;;;;;;10.93;6.68;;;;;;;27.35;28.98;98100.19;5049197;28;20036;-73
2021/10/06 09:41:46;;;;;;;8.45;6.50;;;;;;;28.65;28.05;98099.53;5047173;28;20037;-74
2021/10/06 09:44:13;;;;;;;12.05;7.13;;;;;;;27.75;28.88;98102.53;5055404;28;20044;-73
2021/10/06 09:46:58;;;;;;;12.27;6.70;;;;;;;28.38;27.74;98093.69;5055431;28;20029;-73
2021/10/06 09:49:36;;;;;;;10.75;6.55;;;;;;;28.01;28.88;98099.31;5030056;28;20098;-73
2021/10/06 09:52:17;;;;;;;11.00;7.60;;;;;;;28.91;27.38;98088.78;5047066;28;20457;-73
2021/10/06 09:54:48;;;;;;;9.70;7.15;;;;;;;29.44;26.96;98084.63;5048072;28;20063;-73
2021/10/06 09:57:34;;;;;;;12.77;5.90;;;;;;;29.27;26.52;98075.78;5040014;28;20089;-74
2021/10/06 10:00:03;;;;;;;11.80;6.10;;;;;;;29.69;26.19;98079.47;5068130;28;20054;-73
2021/10/06 10:02:30;;;;;;;9.50;6.10;;;;;;;30.29;26.11;98073.25;5051399;28;20036;-73
2021/10/06 10:04:57;;;;;;;10.60;5.70;;;;;;;31.04;24.74;98067.53;5066643;28;20036;-73
2021/10/06 10:07:23;;;;;;;8.98;6.50;;;;;;;31.31;24.72;98069.25;5065849;28;20028;-72
2021/10/06 10:09:50;;;;;;;7.70;5.97;;;;;;;30.69;25.32;98065.94;5063626;28;20090;-75
2021/10/06 10:12:23;;;;;;;10.35;6.93;;;;;;;30.49;25.39;98058.47;5030041;28;20083;-73
2021/10/06 10:14:50;;;;;;;8.70;6.57;;;;;;;30.71;25.56;98050.00;5046836;28;20020;-73
2021/10/06 10:17:16;;;;;;;9.15;6.15;;;;;;;30.97;25.22;98055.63;5058818;28;20031;-72
2021/10/06 10:20:11;;;;;;;9.38;5.75;;;;;;;31.30;24.21;98056.47;5049577;28;20119;-73
2021/10/06 10:22:40;;;;;;;9.32;6.05;;;;;;;31.56;24.45;98050.91;5045009;28;20044;-73
2021/10/06 10:25:19;;;;;;;11.25;5.90;;;;;;;31.54;24.36;98052.22;5049395;28;20021;-73
2021/10/06 10:28:08;;;;;;;9.73;6.55;;;;;;;30.85;25.00;98041.56;5069903;28;20484;-73
2021/10/06 10:30:36;;;;;;;9.98;5.70;;;;;;;31.11;24.62;98029.66;5068403;28;20032;-75
2021/10/06 10:33:03;;;;;;;9.70;6.78;;;;;;;30.03;25.88;98036.19;5068904;28;20080;-72
2021/10/06 10:35:35;;;;;;;11.85;6.45;;;;;;;30.46;25.61;98036.78;5050158;28;20029;-73
2021/10/06 10:38:01;;;;;;;20.17;7.22;;;;;;;30.36;25.81;98022.50;5055507;28;20043;-73
2021/10/06 10:40:32;;;;;;;17.08;8.07;;;;;;;30.72;25.13;98024.94;5070090;28;20079;-73
2021/10/06 10:43:06;;;;;;;7.60;6.70;;;;;;;30.49;25.29;98019.78;5069332;28;20036;-72
2021/10/06 10:45:52;;;;;;;13.82;7.32;;;;;;;30.80;25.66;98024.72;5066586;28;20087;-72
2021/10/06 10:48:27;;;;;;;11.68;6.80;;;;;;;31.20;24.89;98000.72;5050408;28;20025;-73
2021/10/06 10:50:53;;;;;;;10.32;6.22;;;;;;;30.95;24.71;98013.50;5061659;28;20102;-72
2021/10/06 10:53:21;;;;;;;11.18;6.65;;;;;;;30.60;24.92;98004.53;5069848;28;20031;-74
2021/10/06 10:55:55;;;;;;;10.75;6.10;;;;;;;30.32;25.33;97993.59;5068420;28;20048;-73
2021/10/06 10:58:43;;;;;;;6.65;5.47;;;;;;;30.97;24.67;98001.19;5068933;28;20056;-73
2021/10/06 11:01:15;;;;;;;12.18;6.63;;;;;;;31.51;24.24;98000.94;5054186;28;20029;-73
2021/10/06 11:04:14;;;;;;;11.75;5.80;;;;;;;32.38;22.82;97996.78;5048487;28;20049;-73
2021/10/06 11:06:46;;;;;;;10.40;5.32;;;;;;;32.10;23.27;97983.28;5067564;28;20040;-73
2021/10/06 11:09:30;;;;;;;8.35;6.10;;;;;;;33.60;22.16;97988.78;5051950;28;20028;-73
2021/10/06 11:12:19;;;;;;;12.70;6.45;;;;;;;32.83;22.62;97990.09;5069527;28;20035;-74
2021/10/06 11:14:49;;;;;;;14.48;7.32;;;;;;;32.63;22.87;97987.50;5062885;28;20057;-74
2021/10/06 11:17:18;;;;;;;10.40;6.40;;;;;;;32.45;23.27;97978.22;5068467;28;20032;-73
2021/10/06 11:19:51;;;;;;;9.13;6.90;;;;;;;31.70;24.02;97977.03;5068371;28;20036;-73
2021/10/06 11:22:22;;;;;;;11.60;6.68;;;;;;;31.07;24.59;97975.88;5068766;28;20029;-73
2021/10/06 11:24:52;;;;;;;10.10;6.70;;;;;;;30.49;25.26;97975.59;5068866;28;20472;-73
2021/10/06 11:27:18;;;;;;;13.85;7.07;;;;;;;29.65;26.44;97973.38;5067747;28;20032;-73
2021/10/06 11:29:44;;;;;;;14.52;8.82;;;;;;;29.89;26.54;97968.22;5068423;28;20081;-73
2021/10/06 11:32:10;;;;;;;9.60;7.00;;;;;;;30.14;25.75;97971.25;5069059;28;20021;-73